createdAt,value
2018-12-05T00:00:28.938Z,2.23
2018-12-05T00:02:59.568Z,0.93
2018-12-05T00:05:29.064Z,2.00
2018-12-05T00:08:00.522Z,2.07
2018-12-05T00:10:29.884Z,1.87
2018-12-05T00:13:01.513Z,2.13
2018-12-05T00:15:32.422Z,2.63
2018-12-05T00:18:02.457Z,2.60
2018-12-05T00:20:32.370Z,1.50
2018-12-05T00:23:04.802Z,1.53
2018-12-05T00:25:34.870Z,2.10
2018-12-05T00:28:05.997Z,2.70
2018-12-05T00:30:35.521Z,1.47
2018-12-05T00:33:06.551Z,2.47
2018-12-05T00:35:37.617Z,1.97
2018-12-05T00:38:08.281Z,2.37
2018-12-05T00:40:38.685Z,1.60
2018-12-05T00:43:09.597Z,2.10
2018-12-05T00:45:40.667Z,1.70
2018-12-05T00:48:11.588Z,1.90
2018-12-05T00:50:42.330Z,1.93
2018-12-05T00:53:12.536Z,2.47
2018-12-05T00:55:43.202Z,2.50
2018-12-05T00:58:13.738Z,2.00
2018-12-05T01:00:44.269Z,2.00
2018-12-05T01:03:14.661Z,2.33
2018-12-05T01:05:45.753Z,5.40
2018-12-05T01:08:15.882Z,5.53
2018-12-05T01:10:46.825Z,4.53
2018-12-05T01:13:17.296Z,3.90
2018-12-05T01:15:48.369Z,3.47
2018-12-05T01:18:18.497Z,2.93
2018-12-05T01:20:53.044Z,2.47
2018-12-05T01:23:22.689Z,1.90
2018-12-05T01:25:52.748Z,2.17
2018-12-05T01:28:23.816Z,1.90
2018-12-05T01:30:54.756Z,2.20
2018-12-05T01:33:24.833Z,2.23
2018-12-05T01:35:55.824Z,2.93
2018-12-05T01:38:26.864Z,2.00
2018-12-05T01:40:56.775Z,2.00
2018-12-05T01:43:31.837Z,2.30
2018-12-05T01:46:01.869Z,2.53
2018-12-05T01:48:31.689Z,2.90
2018-12-05T01:51:03.969Z,3.47
2018-12-05T01:53:35.082Z,2.83
2018-12-05T01:56:05.231Z,2.63
2018-12-05T01:58:35.924Z,2.33
2018-12-05T02:01:09.605Z,2.70
2018-12-05T02:03:45.849Z,2.40
2018-12-05T02:06:16.792Z,2.80
2018-12-05T02:08:47.002Z,2.90
2018-12-05T02:11:17.799Z,2.10
2018-12-05T02:13:48.171Z,2.23
2018-12-05T02:16:18.775Z,2.60
2018-12-05T02:18:49.348Z,2.00
2018-12-05T02:21:20.397Z,2.60
2018-12-05T02:23:50.542Z,2.60
2018-12-05T02:26:21.032Z,3.27
2018-12-05T02:28:51.780Z,4.10
2018-12-05T02:31:22.146Z,4.40
2018-12-05T02:33:53.147Z,3.40
2018-12-05T02:36:23.599Z,3.03
2018-12-05T02:38:54.097Z,3.57
2018-12-05T02:41:25.312Z,4.60
2018-12-05T02:43:55.159Z,3.10
2018-12-05T02:46:27.162Z,2.80
2018-12-05T02:48:57.128Z,2.97
2018-12-05T02:51:27.715Z,6.83
2018-12-05T02:53:58.218Z,8.00
2018-12-05T02:56:29.688Z,9.27
2018-12-05T02:59:00.301Z,9.57
2018-12-05T03:01:30.601Z,8.50
2018-12-05T03:04:05.153Z,8.10
2018-12-05T03:06:35.145Z,6.97
2018-12-05T03:09:07.864Z,5.60
2018-12-05T03:11:40.332Z,6.70
2018-12-05T03:14:10.217Z,5.20
2018-12-05T03:16:41.664Z,5.00
2018-12-05T03:19:11.426Z,5.37
2018-12-05T03:21:42.186Z,5.70
2018-12-05T03:24:18.248Z,6.23
2018-12-05T03:26:49.350Z,5.80
2018-12-05T03:29:20.410Z,7.10
2018-12-05T03:31:50.336Z,4.73
2018-12-05T03:34:21.369Z,6.77
2018-12-05T03:36:51.590Z,6.23
2018-12-05T03:39:22.400Z,5.10
2018-12-05T03:41:53.469Z,4.23
2018-12-05T03:44:23.709Z,3.70
2018-12-05T03:46:55.414Z,4.00
2018-12-05T03:49:27.309Z,3.83
2018-12-05T03:52:07.310Z,3.00
2018-12-05T03:54:38.458Z,3.63
2018-12-05T03:57:10.714Z,3.00
2018-12-05T03:59:42.375Z,2.53
2018-12-05T04:02:14.606Z,3.10
2018-12-05T04:04:44.576Z,3.20
2018-12-05T04:07:15.571Z,3.47
2018-12-05T04:09:51.597Z,3.27
2018-12-05T04:12:40.709Z,3.17
2018-12-05T04:15:28.038Z,3.70
2018-12-05T04:18:20.041Z,2.80
2018-12-05T04:20:55.198Z,2.40
2018-12-05T04:23:35.653Z,2.67
2018-12-05T04:26:10.958Z,3.23
2018-12-05T04:28:54.233Z,2.60
2018-12-05T04:34:39.114Z,1.83
2018-12-05T04:37:26.845Z,1.70
2018-12-05T04:40:13.652Z,1.90
2018-12-05T04:43:01.348Z,2.30
2018-12-05T04:45:46.526Z,2.10
2018-12-05T04:48:33.089Z,1.80
2018-12-05T04:51:13.104Z,2.27
2018-12-05T04:53:48.885Z,2.30
2018-12-05T04:56:19.065Z,3.20
2018-12-05T04:58:49.726Z,8.23
2018-12-05T05:01:19.601Z,7.07
2018-12-05T05:03:50.807Z,5.70
2018-12-05T05:06:21.704Z,4.50
2018-12-05T05:08:52.679Z,5.17
2018-12-05T05:11:22.803Z,9.93
2018-12-05T05:13:53.765Z,11.57
2018-12-05T05:16:27.693Z,10.03
2018-12-05T05:19:02.892Z,6.17
2018-12-05T05:21:32.886Z,6.00
2018-12-05T05:24:02.823Z,5.20
2018-12-05T05:26:38.736Z,5.10
2018-12-05T05:29:10.893Z,9.57
2018-12-05T05:31:51.801Z,13.87
2018-12-05T05:34:21.126Z,24.70
2018-12-05T05:36:50.819Z,23.10
2018-12-05T05:39:24.648Z,26.10
2018-12-05T05:42:01.827Z,25.37
2018-12-05T05:44:35.967Z,23.90
2018-12-05T05:47:05.969Z,23.63
2018-12-05T05:49:37.094Z,21.53
2018-12-05T05:52:07.012Z,18.27
2018-12-05T05:54:37.892Z,14.90
2018-12-05T05:57:10.879Z,15.17
2018-12-05T06:02:42.176Z,19.80
2018-12-05T06:05:13.987Z,19.60
2018-12-05T06:07:43.912Z,12.67
2018-12-05T06:10:20.790Z,14.03
2018-12-05T06:12:54.925Z,11.33
2018-12-05T06:15:29.150Z,10.93
2018-12-05T06:17:59.037Z,9.73
2018-12-05T06:20:29.458Z,8.93
2018-12-05T06:23:04.118Z,8.47
2018-12-05T06:25:36.328Z,9.00
2018-12-05T06:28:08.043Z,7.87
2018-12-05T06:30:39.191Z,9.47
2018-12-05T06:33:09.605Z,8.33
2018-12-05T06:35:39.244Z,8.47
2018-12-05T06:38:10.187Z,9.50
2018-12-05T06:40:41.134Z,8.27
2018-12-05T06:43:13.873Z,8.67
2018-12-05T06:45:50.577Z,8.43
2018-12-05T06:48:21.350Z,6.77
2018-12-05T06:50:52.971Z,12.63
2018-12-05T06:53:22.347Z,14.80
2018-12-05T06:55:53.237Z,13.13
2018-12-05T06:58:28.012Z,7.33
2018-12-05T07:01:00.529Z,6.40
2018-12-05T07:03:29.894Z,6.90
2018-12-05T07:06:02.153Z,8.20
2018-12-05T07:08:38.333Z,10.90
2018-12-05T07:11:09.500Z,12.30
2018-12-05T07:13:40.343Z,7.97
2018-12-05T07:16:10.363Z,6.00
2018-12-05T07:18:41.579Z,6.73
2018-12-05T07:21:12.558Z,5.20
2018-12-05T07:23:42.477Z,6.77
2018-12-05T07:26:13.397Z,7.70
2018-12-05T07:28:44.351Z,8.63
2018-12-05T07:31:15.569Z,8.50
2018-12-05T07:33:45.759Z,8.73
2018-12-05T07:36:16.402Z,10.17
2018-12-05T07:38:47.514Z,11.60
2018-12-05T07:41:18.893Z,9.37
2018-12-05T07:43:48.504Z,9.80
2018-12-05T07:46:19.413Z,10.73
2018-12-05T07:48:49.525Z,6.30
2018-12-05T07:51:20.469Z,5.77
2018-12-05T07:53:50.552Z,6.40
2018-12-05T07:56:21.444Z,5.13
2018-12-05T07:58:54.552Z,6.53
2018-12-05T08:01:25.586Z,5.80
2018-12-05T08:03:56.521Z,6.33
2018-12-05T08:06:29.089Z,5.93
2018-12-05T08:09:01.124Z,6.43
2018-12-05T08:11:32.717Z,7.53
2018-12-05T08:14:06.634Z,6.60
2018-12-05T08:16:38.494Z,7.70
2018-12-05T08:19:11.767Z,7.17
2018-12-05T08:21:43.539Z,6.30
2018-12-05T08:24:17.626Z,6.60
2018-12-05T08:26:50.545Z,7.07
2018-12-05T08:29:21.821Z,8.57
2018-12-05T08:31:51.163Z,7.77
2018-12-05T08:34:20.895Z,7.60
2018-12-05T08:36:51.590Z,6.07
2018-12-05T08:39:21.606Z,5.50
2018-12-05T08:41:52.608Z,5.90
2018-12-05T08:44:29.246Z,4.63
2018-12-05T08:46:59.624Z,4.07
2018-12-05T08:49:29.594Z,4.77
2018-12-05T08:52:04.453Z,5.20
2018-12-05T08:54:35.298Z,4.47
2018-12-05T08:57:04.749Z,5.93
2018-12-05T08:59:35.873Z,5.10
2018-12-05T09:02:07.444Z,5.53
2018-12-05T09:04:37.791Z,5.37
2018-12-05T09:07:07.874Z,5.10
2018-12-05T09:09:38.596Z,4.73
2018-12-05T09:12:14.057Z,5.80
2018-12-05T09:14:44.175Z,4.60
2018-12-05T09:17:13.978Z,3.50
2018-12-05T09:19:43.830Z,4.13
2018-12-05T09:22:18.849Z,4.13
2018-12-05T09:24:48.975Z,4.87
2018-12-05T09:27:19.905Z,3.50
2018-12-05T09:29:49.264Z,4.43
2018-12-05T09:32:20.983Z,4.97
2018-12-05T09:34:52.061Z,3.77
2018-12-05T09:37:23.169Z,4.20
2018-12-05T09:39:54.937Z,4.10
2018-12-05T09:42:24.309Z,2.77
2018-12-05T09:44:55.113Z,4.17
2018-12-05T09:47:26.242Z,3.73
2018-12-05T09:49:57.293Z,3.30
2018-12-05T09:52:27.580Z,2.60
2018-12-05T09:54:57.002Z,3.40
2018-12-05T09:57:28.017Z,3.33
2018-12-05T09:59:59.015Z,3.20
2018-12-05T10:02:29.312Z,4.20
2018-12-05T10:05:00.421Z,3.87
2018-12-05T10:07:29.873Z,3.40
2018-12-05T10:10:04.673Z,3.43
2018-12-05T10:12:36.210Z,2.90
2018-12-05T10:15:07.275Z,2.60
2018-12-05T10:17:39.287Z,2.93
2018-12-05T10:20:10.233Z,2.20
2018-12-05T10:22:42.182Z,3.20
2018-12-05T10:25:12.394Z,3.50
2018-12-05T10:27:42.311Z,3.40
2018-12-05T10:30:13.447Z,4.80
2018-12-05T10:32:44.321Z,3.90
2018-12-05T10:35:15.293Z,4.60
2018-12-05T10:37:45.401Z,3.67
2018-12-05T10:40:16.323Z,2.93
2018-12-05T10:42:47.564Z,2.80
2018-12-05T10:45:18.373Z,3.47
2018-12-05T10:47:49.952Z,2.83
2018-12-05T10:50:22.208Z,3.13
2018-12-05T10:52:53.605Z,1.93
2018-12-05T10:55:23.257Z,2.83
2018-12-05T10:57:54.535Z,2.30
2018-12-05T11:00:30.513Z,1.93
2018-12-05T11:03:07.107Z,2.47
2018-12-05T11:05:50.166Z,2.53
2018-12-05T11:08:29.894Z,2.13
2018-12-05T11:11:05.632Z,3.10
2018-12-05T11:13:41.778Z,1.97
2018-12-05T11:16:16.781Z,2.33
2018-12-05T11:18:53.428Z,1.77
2018-12-05T11:21:29.455Z,2.33
2018-12-05T11:24:10.862Z,2.13
2018-12-05T11:26:40.762Z,2.30
2018-12-05T11:29:11.503Z,2.00
2018-12-05T11:31:43.673Z,2.60
2018-12-05T11:34:13.450Z,1.70
2018-12-05T11:36:46.382Z,1.83
2018-12-05T11:39:17.383Z,2.17
2018-12-05T11:41:54.538Z,2.87
2018-12-05T11:44:25.617Z,2.47
2018-12-05T11:46:56.578Z,2.10
2018-12-05T11:49:26.582Z,2.50
2018-12-05T11:51:57.459Z,2.13
2018-12-05T11:54:28.674Z,2.63
2018-12-05T11:56:58.570Z,2.70
2018-12-05T11:59:29.581Z,2.07
2018-12-05T12:01:59.663Z,1.70
2018-12-05T12:04:29.719Z,3.13
2018-12-05T12:07:01.534Z,2.10
2018-12-05T12:09:36.427Z,2.43
2018-12-05T12:12:19.666Z,2.27
2018-12-05T12:14:50.877Z,2.07
2018-12-05T12:17:21.973Z,2.20
2018-12-05T12:19:52.844Z,2.13
2018-12-05T12:22:22.765Z,2.07
2018-12-05T12:24:53.683Z,2.27
2018-12-05T12:27:23.721Z,2.30
2018-12-05T12:29:54.764Z,2.13
2018-12-05T12:32:26.024Z,2.73
2018-12-05T12:34:56.889Z,2.30
2018-12-05T12:37:27.913Z,1.73
2018-12-05T12:39:57.758Z,2.20
2018-12-05T12:42:28.874Z,1.80
2018-12-05T12:44:58.792Z,3.27
2018-12-05T12:47:29.750Z,4.83
2018-12-05T12:50:00.845Z,3.43
2018-12-05T12:52:30.190Z,4.87
2018-12-05T12:55:00.803Z,2.93
2018-12-05T12:57:30.265Z,1.50
2018-12-05T13:00:02.199Z,2.07
2018-12-05T13:02:34.177Z,3.00
2018-12-05T13:05:05.474Z,2.23
2018-12-05T13:07:35.829Z,2.30
2018-12-05T13:10:06.482Z,2.30
2018-12-05T13:12:37.052Z,2.23
2018-12-05T13:15:09.490Z,2.07
2018-12-05T13:17:40.382Z,2.83
2018-12-05T13:20:12.060Z,2.47
2018-12-05T13:22:44.006Z,2.37
2018-12-05T13:25:18.465Z,1.83
2018-12-05T13:27:49.657Z,2.27
2018-12-05T13:30:22.965Z,3.00
2018-12-05T13:32:53.901Z,1.93
2018-12-05T13:35:28.165Z,3.77
2018-12-05T13:37:58.061Z,4.47
2018-12-05T13:40:29.211Z,3.73
2018-12-05T13:42:59.170Z,4.47
2018-12-05T13:45:33.159Z,2.40
2018-12-05T13:48:03.070Z,2.03
2018-12-05T13:50:33.204Z,2.87
2018-12-05T13:53:05.227Z,4.07
2018-12-05T13:55:36.181Z,2.70
2018-12-05T13:58:06.270Z,2.47
2018-12-05T14:00:37.165Z,2.70
2018-12-05T14:03:08.438Z,19.90
2018-12-05T14:05:39.160Z,21.40
2018-12-05T14:08:12.021Z,34.07
2018-12-05T14:10:42.088Z,11.80
2018-12-05T14:13:13.383Z,4.80
2018-12-05T14:18:38.341Z,5.90
2018-12-05T14:21:09.415Z,5.10
2018-12-05T14:23:39.314Z,3.20
2018-12-05T14:26:10.257Z,2.23
2018-12-05T14:28:43.029Z,2.50
2018-12-05T14:31:14.169Z,4.07
2018-12-05T14:33:53.323Z,2.47
2018-12-05T14:36:24.928Z,2.10
2018-12-05T14:38:58.188Z,3.10
2018-12-05T14:41:33.353Z,2.80
2018-12-05T14:44:05.273Z,3.20
2018-12-05T14:46:37.173Z,2.90
2018-12-05T14:49:12.414Z,2.70
2018-12-05T14:51:42.524Z,3.50
2018-12-05T14:54:13.898Z,3.30
2018-12-05T14:59:11.452Z,2.57
2018-12-05T15:01:44.468Z,3.90
2018-12-05T15:04:19.150Z,3.30
2018-12-05T15:06:50.566Z,2.73
2018-12-05T15:09:20.612Z,1.87
2018-12-05T15:11:51.499Z,3.20
2018-12-05T15:14:25.345Z,3.10
2018-12-05T15:16:55.589Z,2.20
2018-12-05T15:19:26.513Z,3.33
2018-12-05T15:22:03.460Z,5.67
2018-12-05T15:24:33.606Z,4.57
2018-12-05T15:27:05.047Z,3.40
2018-12-05T15:29:36.587Z,5.60
2018-12-05T15:32:08.460Z,7.40
2018-12-05T15:34:39.303Z,6.17
2018-12-05T15:37:12.592Z,5.00
2018-12-05T15:39:46.467Z,6.20
2018-12-05T15:42:16.666Z,6.07
2018-12-05T15:44:47.728Z,8.30
2018-12-05T15:47:17.660Z,6.13
2018-12-05T15:49:47.657Z,4.23
2018-12-05T15:52:19.665Z,5.27
2018-12-05T15:54:49.653Z,3.60
2018-12-05T15:57:19.776Z,3.60
2018-12-05T15:59:50.617Z,3.37
2018-12-05T16:02:21.697Z,3.50
2018-12-05T16:04:51.601Z,3.80
2018-12-05T16:07:22.703Z,4.27
2018-12-05T16:09:54.769Z,4.43
2018-12-05T16:12:26.661Z,3.33
2018-12-05T16:15:00.418Z,3.17
2018-12-05T16:17:30.122Z,2.67
2018-12-05T16:20:05.428Z,3.57
2018-12-05T16:22:35.213Z,5.17
2018-12-05T16:25:06.285Z,4.37
2018-12-05T16:27:36.605Z,3.07
2018-12-05T16:30:08.241Z,4.20
2018-12-05T16:32:37.917Z,5.30
2018-12-05T16:35:09.042Z,4.10
2018-12-05T16:37:39.423Z,3.40
2018-12-05T16:40:09.825Z,3.10
2018-12-05T16:42:41.392Z,3.83
2018-12-05T16:45:11.648Z,3.50
2018-12-05T16:47:42.216Z,2.97
2018-12-05T16:50:12.645Z,2.20
2018-12-05T16:52:43.260Z,4.73
2018-12-05T16:55:13.556Z,6.83
2018-12-05T16:57:42.906Z,6.30
2018-12-05T17:00:14.047Z,7.20
2018-12-05T17:02:45.142Z,9.53
2018-12-05T17:05:15.920Z,8.43
2018-12-05T17:07:46.032Z,6.90
2018-12-05T17:10:16.801Z,7.40
2018-12-05T17:12:47.518Z,7.00
2018-12-05T17:15:18.154Z,6.80
2018-12-05T17:17:48.082Z,7.17
2018-12-05T17:20:18.981Z,5.80
2018-12-05T17:22:49.070Z,6.13
2018-12-05T17:25:20.076Z,5.10
2018-12-05T17:27:50.971Z,7.63
2018-12-05T17:30:21.005Z,9.60
2018-12-05T17:32:51.921Z,10.13
2018-12-05T17:35:22.181Z,11.20
2018-12-05T17:37:53.002Z,8.17
2018-12-05T17:40:24.173Z,6.70
2018-12-05T17:42:56.826Z,6.33
2018-12-05T17:45:28.125Z,3.70
2018-12-05T17:47:59.245Z,2.57
2018-12-05T17:50:30.083Z,3.70
2018-12-05T17:53:00.292Z,2.90
2018-12-05T17:55:30.165Z,19.80
2018-12-05T17:57:59.602Z,9.40
2018-12-05T18:00:32.990Z,7.53
2018-12-05T18:03:06.133Z,5.03
2018-12-05T18:05:37.585Z,3.00
2018-12-05T18:08:07.376Z,2.80
2018-12-05T18:10:38.333Z,3.30
2018-12-05T18:13:08.615Z,6.73
2018-12-05T18:15:42.942Z,12.47
2018-12-05T18:18:13.298Z,11.40
2018-12-05T18:20:43.208Z,11.97
2018-12-05T18:23:14.289Z,13.97
2018-12-05T18:25:44.397Z,11.87
2018-12-05T18:28:18.181Z,8.53
2018-12-05T18:30:49.115Z,5.73
2018-12-05T18:33:19.282Z,6.00
2018-12-05T18:35:51.578Z,6.37
2018-12-05T18:38:23.480Z,9.27
2018-12-05T18:40:57.302Z,11.20
2018-12-05T18:43:30.624Z,10.73
2018-12-05T18:46:01.511Z,9.13
2018-12-05T18:48:30.881Z,9.80
2018-12-05T18:51:00.559Z,7.77
2018-12-05T18:53:30.069Z,7.00
2018-12-05T18:56:04.471Z,5.90
2018-12-05T18:58:33.796Z,3.80
2018-12-05T19:01:04.812Z,3.17
2018-12-05T19:03:34.505Z,3.73
2018-12-05T19:06:05.409Z,2.20
2018-12-05T19:08:35.536Z,3.17
2018-12-05T19:11:07.735Z,2.80
2018-12-05T19:13:44.795Z,2.90
2018-12-05T19:16:16.657Z,3.67
2018-12-05T19:18:47.656Z,2.50
2018-12-05T19:21:20.311Z,3.77
2018-12-05T19:23:54.453Z,2.77
2018-12-05T19:26:24.732Z,3.87
2018-12-05T19:28:55.632Z,3.27
2018-12-05T19:31:26.536Z,3.23
2018-12-05T19:33:59.665Z,2.03
2018-12-05T19:36:30.045Z,3.30
2018-12-05T19:39:02.145Z,4.00
2018-12-05T19:41:33.604Z,3.20
2018-12-05T19:44:03.165Z,3.60
2018-12-05T19:46:34.736Z,3.07
2018-12-05T19:49:06.811Z,2.77
2018-12-05T19:51:36.761Z,2.73
2018-12-05T19:54:07.843Z,2.37
2018-12-05T19:56:39.908Z,2.13
2018-12-05T19:59:10.020Z,1.90
2018-12-05T20:01:40.987Z,2.27
2018-12-05T20:04:10.677Z,2.10
2018-12-05T20:06:47.881Z,1.50
2018-12-05T20:09:21.845Z,1.50
2018-12-05T20:11:52.924Z,3.00
2018-12-05T20:14:28.026Z,3.10
2018-12-05T20:16:59.928Z,4.63
2018-12-05T20:19:33.829Z,5.77
2018-12-05T20:22:03.853Z,5.47
2018-12-05T20:24:34.305Z,4.90
2018-12-05T20:27:05.292Z,4.70
2018-12-05T20:29:37.048Z,3.10
2018-12-05T20:32:06.672Z,2.53
2018-12-05T20:34:36.246Z,1.47
2018-12-05T20:37:07.348Z,2.60
2018-12-05T20:39:37.137Z,3.10
2018-12-05T20:42:07.990Z,2.57
2018-12-05T20:44:42.151Z,3.30
2018-12-05T20:47:13.056Z,2.53
2018-12-05T20:49:43.153Z,3.40
2018-12-05T20:52:12.632Z,4.33
2018-12-05T20:54:43.248Z,5.70
2018-12-05T20:57:15.077Z,6.13
2018-12-05T20:59:46.100Z,5.00
2018-12-05T21:02:17.659Z,4.50
2018-12-05T21:04:47.918Z,5.50
2018-12-05T21:07:18.048Z,4.23
2018-12-05T21:09:49.174Z,3.87
2018-12-05T21:12:20.097Z,2.93
2018-12-05T21:14:50.722Z,2.77
2018-12-05T21:17:21.076Z,2.63
2018-12-05T21:19:55.142Z,3.30
2018-12-05T21:22:27.083Z,3.60
2018-12-05T21:24:57.151Z,2.90
2018-12-05T21:27:27.053Z,2.53
2018-12-05T21:30:05.678Z,2.87
2018-12-05T21:32:37.073Z,3.40
2018-12-05T21:35:08.304Z,4.13
2018-12-05T21:37:39.137Z,3.10
2018-12-05T21:40:09.225Z,3.13
2018-12-05T21:42:40.462Z,3.63
2018-12-05T21:45:11.208Z,5.27
2018-12-05T21:47:42.244Z,5.90
2018-12-05T21:50:12.213Z,5.60
2018-12-05T21:52:42.297Z,6.30
2018-12-05T21:55:14.281Z,5.90
2018-12-05T21:57:46.629Z,6.53
2018-12-05T22:00:17.170Z,3.57
2018-12-05T22:02:48.209Z,3.70
2018-12-05T22:05:19.160Z,3.50
2018-12-05T22:07:48.508Z,2.60
2018-12-05T22:10:19.417Z,3.30
2018-12-05T22:12:50.343Z,2.10
2018-12-05T22:15:22.306Z,1.97
2018-12-05T22:17:52.838Z,2.20
2018-12-05T22:20:23.384Z,2.50
2018-12-05T22:22:54.513Z,1.80
2018-12-05T22:25:25.445Z,2.30
2018-12-05T22:33:55.406Z,2.10
2018-12-05T22:36:30.027Z,1.80
2018-12-05T22:39:06.960Z,1.90
2018-12-05T22:41:36.369Z,2.40
2018-12-05T22:44:07.367Z,2.00
2018-12-05T22:46:36.712Z,1.90
2018-12-05T22:49:07.543Z,1.93
2018-12-05T22:51:40.208Z,2.67
2018-12-05T22:54:11.509Z,2.20
2018-12-05T22:56:49.101Z,2.70
2018-12-05T22:59:18.990Z,2.10
2018-12-05T23:01:50.427Z,2.30
2018-12-05T23:04:24.657Z,1.90
2018-12-05T23:06:56.569Z,1.77
2018-12-05T23:09:27.889Z,2.03
2018-12-05T23:11:58.485Z,1.80
2018-12-05T23:14:29.756Z,1.87
2018-12-05T23:16:59.579Z,1.80
2018-12-05T23:19:30.617Z,1.83
2018-12-05T23:22:05.528Z,1.90
2018-12-05T23:24:36.580Z,2.53
2018-12-05T23:27:09.697Z,2.47
2018-12-05T23:29:40.980Z,2.10
2018-12-05T23:32:10.663Z,2.10
2018-12-05T23:34:42.822Z,1.90
2018-12-05T23:37:14.833Z,1.67
2018-12-05T23:39:45.572Z,3.10
2018-12-05T23:42:19.580Z,1.80
2018-12-05T23:44:52.689Z,2.37
2018-12-05T23:47:26.616Z,2.63
2018-12-05T23:49:56.776Z,2.30
2018-12-05T23:52:26.776Z,2.10
2018-12-05T23:54:56.344Z,2.10
2018-12-05T23:57:27.821Z,2.30
2018-12-05T23:59:58.767Z,2.00
